Lodi, Arkansas
Current Conditions -  °F | °C
As of 8:38 PM on Tuesday 21 Oct 2014 (Local Time) from KMWT Reporting Station
Haze Haze  
Wind Chill: 61°   Ceiling: Unl
Heat Index: 61°   Visibility: 1.5mi
Dew Point: 59°   Wind: 0mph
Humidity: 93%   Direction: NA
Pressure: 30.06"   Gusts: NA
Location:  34.3099°N, 93.5952°W
Report Text: KMWT 220138Z AUTO 00000KT 1 1/2SM BR CLR 16/15 A3006 RMK AO2 T01610150
Loading
Personal Weather Stations






























Interactive Weather Map New forecast layout! Learn more

10-Day Weather Forecast

Advertisements
Track Severe Weather on mobile